createdAt,value
2017-08-10T00:00:01.183Z,93
2017-08-10T00:01:03.629Z,93
2017-08-10T00:02:06.084Z,93
2017-08-10T00:03:08.521Z,93
2017-08-10T00:04:11.315Z,93
2017-08-10T00:05:13.767Z,93
2017-08-10T00:06:16.268Z,93
2017-08-10T00:07:19.071Z,93
2017-08-10T00:08:21.526Z,93
2017-08-10T00:09:24.321Z,93
2017-08-10T00:10:26.780Z,93
2017-08-10T00:11:29.233Z,93
2017-08-10T00:12:31.685Z,93
2017-08-10T00:13:34.487Z,93
2017-08-10T00:14:36.929Z,93
2017-08-10T00:15:39.381Z,93
2017-08-10T00:16:41.844Z,93
2017-08-10T00:17:44.289Z,93
2017-08-10T00:18:46.739Z,93
2017-08-10T00:19:49.862Z,93
2017-08-10T00:20:52.668Z,93
2017-08-10T00:21:55.445Z,93
2017-08-10T00:22:58.248Z,93
2017-08-10T00:24:00.691Z,93
2017-08-10T00:25:03.469Z,93
2017-08-10T00:26:05.920Z,93
2017-08-10T00:27:08.365Z,93
2017-08-10T00:28:10.823Z,93
2017-08-10T00:29:13.623Z,93
2017-08-10T00:30:16.748Z,93
2017-08-10T00:31:19.196Z,93
2017-08-10T00:32:21.652Z,93
2017-08-10T00:33:24.100Z,93
2017-08-10T00:34:26.547Z,93
2017-08-10T00:35:29.002Z,94
2017-08-10T00:36:31.790Z,94
2017-08-10T00:37:34.603Z,94
2017-08-10T00:38:37.402Z,94
2017-08-10T00:39:39.848Z,94
2017-08-10T00:40:42.648Z,94
2017-08-10T00:41:45.094Z,94
2017-08-10T00:42:47.544Z,94
2017-08-10T00:43:51.031Z,94
2017-08-10T00:44:53.487Z,94
2017-08-10T00:45:55.941Z,94
2017-08-10T00:46:58.397Z,94
2017-08-10T00:48:00.846Z,94
2017-08-10T00:49:03.973Z,94
2017-08-10T00:50:06.412Z,94
2017-08-10T00:51:08.865Z,93
2017-08-10T00:52:11.315Z,93
2017-08-10T00:53:13.761Z,93
2017-08-10T00:54:16.567Z,93
2017-08-10T00:55:19.025Z,93
2017-08-10T00:56:21.454Z,93
2017-08-10T00:57:24.255Z,93
2017-08-10T00:58:27.372Z,93
2017-08-10T00:59:30.158Z,93
2017-08-10T01:00:32.946Z,93
2017-08-10T01:01:35.732Z,93
2017-08-10T01:02:38.173Z,93
2017-08-10T01:03:41.314Z,94
2017-08-10T01:04:44.101Z,94
2017-08-10T01:05:46.578Z,94
2017-08-10T01:06:49.424Z,94
2017-08-10T01:07:51.869Z,94
2017-08-10T01:08:54.327Z,94
2017-08-10T01:09:57.451Z,94
2017-08-10T01:10:59.896Z,94
2017-08-10T01:12:02.338Z,94
2017-08-10T01:13:05.123Z,94
2017-08-10T01:14:08.597Z,94
2017-08-10T01:15:11.410Z,94
2017-08-10T01:16:14.561Z,94
2017-08-10T01:17:17.007Z,94
2017-08-10T01:18:19.453Z,94
2017-08-10T01:19:21.901Z,94
2017-08-10T01:20:24.351Z,94
2017-08-10T01:21:26.818Z,94
2017-08-10T01:22:29.278Z,94
2017-08-10T01:23:31.730Z,94
2017-08-10T01:24:34.521Z,94
2017-08-10T01:25:37.305Z,94
2017-08-10T01:26:39.752Z,94
2017-08-10T01:27:42.193Z,94
2017-08-10T01:28:44.654Z,94
2017-08-10T01:29:47.442Z,94
2017-08-10T01:30:50.229Z,94
2017-08-10T01:31:53.068Z,94
2017-08-10T01:32:55.517Z,94
2017-08-10T01:33:58.299Z,94
2017-08-10T01:35:00.764Z,94
2017-08-10T01:36:03.565Z,94
2017-08-10T01:37:06.027Z,93
2017-08-10T01:38:08.816Z,93
2017-08-10T01:39:11.253Z,93
2017-08-10T01:40:13.713Z,93
2017-08-10T01:41:16.180Z,93
2017-08-10T01:42:18.621Z,93
2017-08-10T01:43:21.060Z,93
2017-08-10T01:44:23.887Z,93
2017-08-10T01:45:26.357Z,93
2017-08-10T01:46:28.802Z,93
2017-08-10T01:47:31.935Z,93
2017-08-10T01:48:35.058Z,93
2017-08-10T01:49:37.881Z,93
2017-08-10T01:50:40.340Z,93
2017-08-10T01:51:43.128Z,93
2017-08-10T01:52:45.580Z,93
2017-08-10T01:53:48.025Z,93
2017-08-10T01:54:50.831Z,93
2017-08-10T01:55:53.271Z,93
2017-08-10T01:56:55.718Z,93
2017-08-10T01:57:58.164Z,93
2017-08-10T01:59:00.978Z,93
2017-08-10T02:00:03.430Z,93
2017-08-10T02:01:05.882Z,93
2017-08-10T02:02:08.679Z,93
2017-08-10T02:03:11.477Z,93
2017-08-10T02:04:13.927Z,92
2017-08-10T02:05:16.369Z,92
2017-08-10T02:06:18.807Z,92
2017-08-10T02:07:21.249Z,93
2017-08-10T02:08:24.057Z,93
2017-08-10T02:09:26.507Z,93
2017-08-10T02:10:28.952Z,93
2017-08-10T02:11:31.397Z,93
2017-08-10T02:12:34.196Z,93
2017-08-10T02:13:36.633Z,93
2017-08-10T02:14:39.441Z,93
2017-08-10T02:15:41.890Z,93
2017-08-10T02:16:44.675Z,93
2017-08-10T02:17:47.132Z,93
2017-08-10T02:18:49.951Z,93
2017-08-10T02:19:52.744Z,93
2017-08-10T02:20:55.206Z,93
2017-08-10T02:21:57.642Z,93
2017-08-10T02:23:00.092Z,93
2017-08-10T02:24:02.885Z,93
2017-08-10T02:25:05.333Z,93
2017-08-10T02:26:08.793Z,93
2017-08-10T02:27:11.239Z,93
2017-08-10T02:28:13.693Z,93
2017-08-10T02:29:16.145Z,93
2017-08-10T02:30:18.609Z,93
2017-08-10T02:31:21.049Z,93
2017-08-10T02:32:24.174Z,93
2017-08-10T02:33:26.983Z,93
2017-08-10T02:34:29.427Z,93
2017-08-10T02:35:31.890Z,93
2017-08-10T02:36:35.012Z,93
2017-08-10T02:37:37.481Z,93
2017-08-10T02:38:40.271Z,93
2017-08-10T02:39:43.058Z,93
2017-08-10T02:40:45.501Z,93
2017-08-10T02:41:47.944Z,93
2017-08-10T02:42:51.076Z,94
2017-08-10T02:43:53.536Z,94
2017-08-10T02:44:55.987Z,94
2017-08-10T02:45:59.456Z,94
2017-08-10T02:47:01.916Z,94
2017-08-10T02:48:05.059Z,94
2017-08-10T02:49:07.858Z,94
2017-08-10T02:50:10.645Z,94
2017-08-10T02:51:13.435Z,94
2017-08-10T02:52:16.234Z,94
2017-08-10T02:53:19.018Z,94
2017-08-10T02:54:21.826Z,94
2017-08-10T02:55:24.962Z,94
2017-08-10T02:56:27.423Z,94
2017-08-10T02:57:30.219Z,94
2017-08-10T02:58:32.697Z,94
2017-08-10T02:59:35.151Z,94
2017-08-10T03:00:37.602Z,94
2017-08-10T03:01:40.050Z,94
2017-08-10T03:02:43.180Z,94
2017-08-10T03:03:46.293Z,94
2017-08-10T03:04:49.789Z,94
2017-08-10T03:05:52.252Z,94
2017-08-10T03:06:55.053Z,94
2017-08-10T03:07:57.487Z,94
2017-08-10T03:09:00.285Z,94
2017-08-10T03:10:03.779Z,94
2017-08-10T03:11:06.238Z,94
2017-08-10T03:12:09.043Z,94
2017-08-10T03:13:11.496Z,94
2017-08-10T03:14:14.287Z,94
2017-08-10T03:15:16.751Z,94
2017-08-10T03:16:19.549Z,94
2017-08-10T03:17:21.991Z,94
2017-08-10T03:18:24.776Z,94
2017-08-10T03:19:27.243Z,94
2017-08-10T03:20:30.019Z,94
2017-08-10T03:21:32.792Z,94
2017-08-10T03:22:35.243Z,94
2017-08-10T03:23:38.383Z,94
2017-08-10T03:24:40.886Z,94
2017-08-10T03:25:44.707Z,94
2017-08-10T03:26:47.497Z,94
2017-08-10T03:27:50.282Z,94
2017-08-10T03:28:52.741Z,94
2017-08-10T03:29:55.857Z,94
2017-08-10T03:30:58.653Z,94
2017-08-10T03:32:01.803Z,94
2017-08-10T03:33:04.591Z,94
2017-08-10T03:34:07.390Z,94
2017-08-10T03:35:09.854Z,94
2017-08-10T03:36:12.294Z,94
2017-08-10T03:37:14.748Z,94
2017-08-10T03:38:17.870Z,94
2017-08-10T03:39:21.010Z,94
2017-08-10T03:40:23.467Z,94
2017-08-10T03:41:26.270Z,94
2017-08-10T03:42:29.055Z,94
2017-08-10T03:43:31.858Z,94
2017-08-10T03:44:34.296Z,94
2017-08-10T03:45:36.749Z,94
2017-08-10T03:46:39.193Z,94
2017-08-10T03:47:41.988Z,94
2017-08-10T03:48:44.766Z,94
2017-08-10T03:49:47.588Z,94
2017-08-10T03:50:50.389Z,94
2017-08-10T03:51:52.838Z,94
2017-08-10T03:52:55.275Z,94
2017-08-10T03:53:57.733Z,94
2017-08-10T03:55:00.191Z,94
2017-08-10T03:56:02.637Z,94
2017-08-10T03:57:05.093Z,94
2017-08-10T03:58:08.221Z,94
2017-08-10T03:59:11.006Z,95
2017-08-10T04:00:13.802Z,95
2017-08-10T04:01:16.249Z,95
2017-08-10T04:02:19.022Z,95
2017-08-10T04:03:21.474Z,94
2017-08-10T04:04:24.270Z,94
2017-08-10T04:05:27.063Z,94
2017-08-10T04:06:29.519Z,94
2017-08-10T04:07:31.955Z,95
2017-08-10T04:08:34.400Z,95
2017-08-10T04:09:36.860Z,95
2017-08-10T04:10:39.649Z,95
2017-08-10T04:11:42.435Z,94
2017-08-10T04:12:44.905Z,94
2017-08-10T04:13:47.352Z,94
2017-08-10T04:14:49.804Z,94
2017-08-10T04:15:52.595Z,95
2017-08-10T04:16:55.024Z,94
2017-08-10T04:17:58.156Z,94
2017-08-10T04:19:00.623Z,94
2017-08-10T04:20:03.420Z,95
2017-08-10T04:21:06.559Z,95
2017-08-10T04:22:09.005Z,95
2017-08-10T04:23:11.454Z,95
2017-08-10T04:24:14.259Z,95
2017-08-10T04:25:17.104Z,95
2017-08-10T04:26:19.557Z,95
2017-08-10T04:27:22.034Z,95
2017-08-10T04:28:24.467Z,95
2017-08-10T04:29:26.912Z,95
2017-08-10T04:30:29.361Z,95
2017-08-10T04:31:31.814Z,95
2017-08-10T04:32:34.941Z,95
2017-08-10T04:33:37.727Z,95
2017-08-10T04:34:40.506Z,95
2017-08-10T04:35:42.959Z,95
2017-08-10T04:36:45.751Z,95
2017-08-10T04:37:48.204Z,95
2017-08-10T04:38:50.654Z,95
2017-08-10T04:39:53.464Z,95
2017-08-10T04:40:55.893Z,95
2017-08-10T04:41:58.709Z,95
2017-08-10T04:43:01.140Z,95
2017-08-10T04:44:03.595Z,95
2017-08-10T04:45:07.064Z,95
2017-08-10T04:46:09.866Z,95
2017-08-10T04:47:12.320Z,95
2017-08-10T04:48:14.787Z,95
2017-08-10T04:49:17.907Z,95
2017-08-10T04:50:20.351Z,95
2017-08-10T04:51:22.797Z,95
2017-08-10T04:52:25.260Z,95
2017-08-10T04:53:27.730Z,95
2017-08-10T04:54:30.515Z,95
2017-08-10T04:55:32.972Z,95
2017-08-10T04:56:35.760Z,95
2017-08-10T04:57:38.572Z,95
2017-08-10T04:58:41.024Z,95
2017-08-10T04:59:43.453Z,95
2017-08-10T05:00:46.256Z,95
2017-08-10T05:01:48.744Z,95
2017-08-10T05:02:51.187Z,94
2017-08-10T05:03:53.974Z,94
2017-08-10T05:04:56.767Z,94
2017-08-10T05:05:59.212Z,94
2017-08-10T05:07:02.014Z,94
2017-08-10T05:08:04.795Z,94
2017-08-10T05:09:07.255Z,94
2017-08-10T05:10:09.723Z,94
2017-08-10T05:11:12.513Z,94
2017-08-10T05:12:15.320Z,94
2017-08-10T05:13:17.776Z,94
2017-08-10T05:14:20.558Z,94
2017-08-10T05:15:23.018Z,94
2017-08-10T05:16:25.823Z,94
2017-08-10T05:17:28.283Z,94
2017-08-10T05:18:30.781Z,94
2017-08-10T05:19:33.268Z,94
2017-08-10T05:20:36.074Z,94
2017-08-10T05:21:38.525Z,94
2017-08-10T05:22:40.984Z,94
2017-08-10T05:23:43.441Z,94
2017-08-10T05:24:46.233Z,94
2017-08-10T05:25:49.017Z,93
2017-08-10T05:26:51.492Z,94
2017-08-10T05:27:53.943Z,94
2017-08-10T05:28:56.401Z,94
2017-08-10T05:29:58.849Z,94
2017-08-10T05:31:01.634Z,94
2017-08-10T05:32:04.419Z,94
2017-08-10T05:33:06.890Z,94
2017-08-10T05:34:09.337Z,94
2017-08-10T05:35:11.800Z,93
2017-08-10T05:36:14.922Z,93
2017-08-10T05:37:17.713Z,93
2017-08-10T05:38:20.169Z,93
2017-08-10T05:39:22.987Z,93
2017-08-10T05:40:25.420Z,93
2017-08-10T05:41:27.915Z,93
2017-08-10T05:42:30.418Z,93
2017-08-10T05:43:32.865Z,93
2017-08-10T05:44:35.987Z,93
2017-08-10T05:45:38.781Z,93
2017-08-10T05:46:41.237Z,93
2017-08-10T05:47:43.718Z,93
2017-08-10T05:48:46.517Z,93
2017-08-10T05:49:49.303Z,93
2017-08-10T05:50:51.755Z,93
2017-08-10T05:51:54.208Z,93
2017-08-10T05:52:57.346Z,93
2017-08-10T05:53:59.790Z,93
2017-08-10T05:55:02.920Z,93
2017-08-10T05:56:05.720Z,93
2017-08-10T05:57:08.520Z,93
2017-08-10T05:58:11.325Z,93
2017-08-10T05:59:13.772Z,93
2017-08-10T06:00:16.555Z,93
2017-08-10T06:01:19.351Z,93
2017-08-10T06:02:22.142Z,93
2017-08-10T06:03:24.591Z,93
2017-08-10T06:04:27.702Z,93
2017-08-10T06:05:30.494Z,93
2017-08-10T06:06:33.284Z,93
2017-08-10T06:07:35.736Z,93
2017-08-10T06:08:38.524Z,93
2017-08-10T06:09:40.970Z,93
2017-08-10T06:10:43.756Z,93
2017-08-10T06:11:46.210Z,93
2017-08-10T06:12:48.657Z,93
2017-08-10T06:13:51.112Z,92
2017-08-10T06:14:53.563Z,92
2017-08-10T06:15:56.021Z,92
2017-08-10T06:16:58.817Z,92
2017-08-10T06:18:01.265Z,92
2017-08-10T06:19:03.745Z,92
2017-08-10T06:20:06.207Z,92
2017-08-10T06:21:08.662Z,92
2017-08-10T06:22:11.103Z,92
2017-08-10T06:23:13.555Z,92
2017-08-10T06:24:16.369Z,92
2017-08-10T06:25:18.819Z,92
2017-08-10T06:26:21.611Z,92
2017-08-10T06:27:24.073Z,92
2017-08-10T06:28:26.552Z,92
2017-08-10T06:29:29.031Z,92
2017-08-10T06:30:31.475Z,92
2017-08-10T06:31:34.268Z,92
2017-08-10T06:32:37.066Z,92
2017-08-10T06:33:39.859Z,92
2017-08-10T06:34:42.314Z,92
2017-08-10T06:35:45.142Z,92
2017-08-10T06:36:47.597Z,92
2017-08-10T06:37:50.051Z,91
2017-08-10T06:38:53.207Z,91
2017-08-10T06:39:55.648Z,91
2017-08-10T06:40:58.455Z,91
2017-08-10T06:42:01.250Z,90
2017-08-10T06:43:04.041Z,91
2017-08-10T06:44:07.177Z,90
2017-08-10T06:45:09.626Z,90
2017-08-10T06:46:12.418Z,90
2017-08-10T06:47:15.217Z,90
2017-08-10T06:48:17.674Z,90
2017-08-10T06:49:20.138Z,90
2017-08-10T06:50:22.634Z,90
2017-08-10T06:51:25.099Z,88
2017-08-10T06:52:27.548Z,89
2017-08-10T06:53:30.334Z,90
2017-08-10T06:54:32.795Z,90
2017-08-10T06:55:35.248Z,90
2017-08-10T06:56:37.725Z,89
2017-08-10T06:57:40.171Z,89
2017-08-10T06:58:42.965Z,88
2017-08-10T06:59:45.412Z,89
2017-08-10T07:00:47.877Z,88
2017-08-10T07:01:50.327Z,88
2017-08-10T07:02:53.469Z,87
2017-08-10T07:03:56.261Z,87
2017-08-10T07:04:58.718Z,88
2017-08-10T07:06:01.175Z,89
2017-08-10T07:07:03.640Z,88
2017-08-10T07:08:07.100Z,88
2017-08-10T07:09:09.560Z,87
2017-08-10T07:10:15.618Z,87
2017-08-10T07:11:24.602Z,87
2017-08-10T07:12:35.528Z,85
2017-08-10T07:13:45.756Z,84
2017-08-10T07:14:55.472Z,86
2017-08-10T07:16:05.842Z,87
2017-08-10T07:17:16.712Z,87
2017-08-10T07:18:26.855Z,86
2017-08-10T07:19:37.724Z,86
2017-08-10T07:20:47.225Z,85
2017-08-10T07:21:57.872Z,83
2017-08-10T07:23:09.581Z,85
2017-08-10T07:24:19.001Z,86
2017-08-10T07:25:31.370Z,86
2017-08-10T07:26:42.541Z,83
2017-08-10T07:27:53.315Z,83
2017-08-10T07:29:03.182Z,80
2017-08-10T07:30:15.021Z,84
2017-08-10T07:31:26.138Z,79
2017-08-10T07:32:38.113Z,80
2017-08-10T07:33:50.168Z,80
2017-08-10T07:35:00.379Z,80
2017-08-10T07:36:08.283Z,80
2017-08-10T07:37:17.488Z,79
2017-08-10T07:38:28.102Z,80
2017-08-10T07:39:38.817Z,80
2017-08-10T07:40:46.243Z,80
2017-08-10T07:41:50.564Z,80
2017-08-10T07:42:53.842Z,79
2017-08-10T07:43:57.460Z,79
2017-08-10T07:45:03.113Z,80
2017-08-10T07:46:06.480Z,80
2017-08-10T07:47:10.571Z,80
2017-08-10T07:48:13.315Z,79
2017-08-10T07:49:16.301Z,78
2017-08-10T07:50:19.002Z,79
2017-08-10T07:51:22.335Z,78
2017-08-10T07:52:24.908Z,76
2017-08-10T07:53:27.369Z,76
2017-08-10T07:54:30.182Z,75
2017-08-10T07:55:32.986Z,76
2017-08-10T07:56:35.464Z,77
2017-08-10T07:57:37.935Z,75
2017-08-10T07:58:40.789Z,74
2017-08-10T07:59:43.331Z,75
2017-08-10T08:00:46.275Z,74
2017-08-10T08:01:49.253Z,75
2017-08-10T08:02:51.702Z,75
2017-08-10T08:03:54.180Z,74
2017-08-10T08:04:57.319Z,74
2017-08-10T08:05:59.791Z,73
2017-08-10T08:07:02.585Z,74
2017-08-10T08:08:05.042Z,74
2017-08-10T08:09:07.882Z,74
2017-08-10T08:10:10.350Z,77
2017-08-10T08:11:12.810Z,76
2017-08-10T08:12:15.268Z,76
2017-08-10T08:13:17.732Z,76
2017-08-10T08:14:20.244Z,76
2017-08-10T08:15:22.694Z,75
2017-08-10T08:16:25.143Z,76
2017-08-10T08:17:27.601Z,77
2017-08-10T08:18:30.406Z,77
2017-08-10T08:19:32.865Z,77
2017-08-10T08:20:35.329Z,77
2017-08-10T08:21:37.782Z,76
2017-08-10T08:22:40.256Z,75
2017-08-10T08:23:43.383Z,75
2017-08-10T08:24:46.183Z,75
2017-08-10T08:25:48.979Z,76
2017-08-10T08:26:51.772Z,76
2017-08-10T08:27:54.226Z,75
2017-08-10T08:28:56.685Z,75
2017-08-10T08:29:59.473Z,76
2017-08-10T08:31:01.927Z,76
2017-08-10T08:32:05.056Z,76
2017-08-10T08:33:07.516Z,75
2017-08-10T08:34:09.975Z,74
2017-08-10T08:35:12.434Z,75
2017-08-10T08:36:15.236Z,76
2017-08-10T08:37:17.702Z,75
2017-08-10T08:38:20.536Z,76
2017-08-10T08:39:23.680Z,76
2017-08-10T08:40:26.145Z,77
2017-08-10T08:41:28.963Z,78
2017-08-10T08:42:32.124Z,76
2017-08-10T08:43:34.583Z,76
2017-08-10T08:44:37.056Z,76
2017-08-10T08:45:39.865Z,77
2017-08-10T08:46:42.341Z,75
2017-08-10T08:47:44.815Z,75
2017-08-10T08:48:47.281Z,77
2017-08-10T08:49:50.058Z,78
2017-08-10T08:50:52.535Z,78
2017-08-10T08:51:55.003Z,78
2017-08-10T08:52:57.456Z,78
2017-08-10T08:53:59.914Z,79
2017-08-10T08:55:03.081Z,77
2017-08-10T08:56:05.889Z,77
2017-08-10T08:57:08.367Z,74
2017-08-10T08:58:11.175Z,77
2017-08-10T08:59:13.965Z,79
2017-08-10T09:00:16.432Z,79
2017-08-10T09:01:18.891Z,79
2017-08-10T09:02:21.352Z,78
2017-08-10T09:03:24.503Z,77
2017-08-10T09:04:26.975Z,78
2017-08-10T09:05:29.848Z,76
2017-08-10T09:06:32.304Z,75
2017-08-10T09:07:35.108Z,74
2017-08-10T09:08:37.556Z,78
2017-08-10T09:09:40.018Z,79
2017-08-10T09:10:42.832Z,79
2017-08-10T09:11:45.297Z,78
2017-08-10T09:12:47.759Z,78
2017-08-10T09:13:50.223Z,77
2017-08-10T09:14:53.037Z,78
2017-08-10T09:15:55.538Z,77
2017-08-10T09:16:58.002Z,78
2017-08-10T09:18:00.461Z,78
2017-08-10T09:19:03.258Z,77
2017-08-10T09:20:06.167Z,77
2017-08-10T09:21:08.617Z,76
2017-08-10T09:22:11.090Z,79
2017-08-10T09:23:13.546Z,79
2017-08-10T09:24:16.361Z,79
2017-08-10T09:25:19.845Z,79
2017-08-10T09:26:22.643Z,80
2017-08-10T09:27:25.094Z,79
2017-08-10T09:28:27.563Z,80
2017-08-10T09:29:30.017Z,80
2017-08-10T09:30:32.801Z,80
2017-08-10T09:31:35.270Z,80
2017-08-10T09:32:37.735Z,79
2017-08-10T09:33:40.190Z,79
2017-08-10T09:34:42.639Z,79
2017-08-10T09:35:45.092Z,79
2017-08-10T09:36:47.882Z,79
2017-08-10T09:37:50.351Z,78
2017-08-10T09:38:52.827Z,75
2017-08-10T09:39:55.279Z,78
2017-08-10T09:40:58.094Z,80
2017-08-10T09:42:00.903Z,78
2017-08-10T09:43:03.704Z,78
2017-08-10T09:44:06.166Z,82
2017-08-10T09:45:09.310Z,83
2017-08-10T09:46:11.774Z,83
2017-08-10T09:47:14.918Z,82
2017-08-10T09:48:18.055Z,83
2017-08-10T09:49:20.502Z,83
2017-08-10T09:50:22.973Z,82
2017-08-10T09:51:25.442Z,81
2017-08-10T09:52:28.260Z,81
2017-08-10T09:53:30.712Z,81
2017-08-10T09:54:33.174Z,82
2017-08-10T09:55:35.640Z,83
2017-08-10T09:56:38.107Z,83
2017-08-10T09:57:40.568Z,82
2017-08-10T09:58:43.031Z,83
2017-08-10T09:59:45.495Z,84
2017-08-10T10:00:48.971Z,84
2017-08-10T10:01:51.778Z,84
2017-08-10T10:02:54.235Z,84
2017-08-10T10:03:56.720Z,83
2017-08-10T10:04:59.527Z,83
2017-08-10T10:06:02.332Z,84
2017-08-10T10:07:04.799Z,84
2017-08-10T10:08:07.257Z,82
2017-08-10T10:09:09.722Z,78
2017-08-10T10:10:12.195Z,78
2017-08-10T10:11:14.987Z,80
2017-08-10T10:12:18.439Z,76
2017-08-10T10:13:21.563Z,76
2017-08-10T10:14:24.365Z,79
2017-08-10T10:15:26.841Z,80
2017-08-10T10:16:29.683Z,77
2017-08-10T10:17:32.843Z,77
2017-08-10T10:18:35.308Z,73
2017-08-10T10:19:37.783Z,73
2017-08-10T10:20:40.255Z,72
2017-08-10T10:21:43.058Z,72
2017-08-10T10:22:45.860Z,75
2017-08-10T10:23:48.311Z,76
2017-08-10T10:24:50.777Z,78
2017-08-10T10:25:53.234Z,75
2017-08-10T10:26:56.033Z,76
2017-08-10T10:27:58.505Z,75
2017-08-10T10:29:01.321Z,77
2017-08-10T10:30:04.128Z,78
2017-08-10T10:31:06.953Z,77
2017-08-10T10:32:09.756Z,77
2017-08-10T10:33:12.217Z,77
2017-08-10T10:34:14.689Z,74
2017-08-10T10:35:17.163Z,75
2017-08-10T10:36:19.642Z,76
2017-08-10T10:37:22.094Z,78
2017-08-10T10:38:24.892Z,78
2017-08-10T10:39:27.354Z,78
2017-08-10T10:40:30.148Z,75
2017-08-10T10:41:32.951Z,72
2017-08-10T10:42:35.408Z,74
2017-08-10T10:43:38.211Z,73
2017-08-10T10:44:40.668Z,72
2017-08-10T10:45:43.137Z,73
2017-08-10T10:46:45.941Z,77
2017-08-10T10:47:48.798Z,75
2017-08-10T10:48:51.941Z,73
2017-08-10T10:49:54.398Z,73
2017-08-10T10:50:57.197Z,75
2017-08-10T10:51:59.660Z,74
2017-08-10T10:53:02.152Z,70
2017-08-10T10:54:04.940Z,71
2017-08-10T10:55:07.402Z,70
2017-08-10T10:56:10.220Z,70
2017-08-10T10:57:12.675Z,71
2017-08-10T10:58:15.477Z,71
2017-08-10T10:59:18.286Z,72
2017-08-10T11:00:21.108Z,70
2017-08-10T11:01:23.924Z,70
2017-08-10T11:02:26.741Z,69
2017-08-10T11:03:29.546Z,70
2017-08-10T11:04:32.026Z,68
2017-08-10T11:05:34.832Z,68
2017-08-10T11:06:37.367Z,66
2017-08-10T11:07:40.532Z,66
2017-08-10T11:08:43.349Z,66
2017-08-10T11:09:46.153Z,62
2017-08-10T11:10:48.638Z,63
2017-08-10T11:11:51.460Z,62
2017-08-10T11:12:53.975Z,64
2017-08-10T11:13:56.820Z,63
2017-08-10T11:14:59.542Z,63
2017-08-10T11:16:02.027Z,62
2017-08-10T11:17:05.232Z,61
2017-08-10T11:18:08.069Z,61
2017-08-10T11:19:10.594Z,59
2017-08-10T11:20:13.090Z,60
2017-08-10T11:21:15.551Z,61
2017-08-10T11:22:18.015Z,60
2017-08-10T11:23:20.477Z,60
2017-08-10T11:24:23.305Z,62
2017-08-10T11:25:25.810Z,64
2017-08-10T11:26:28.301Z,62
2017-08-10T11:27:30.905Z,59
2017-08-10T11:28:33.416Z,59
2017-08-10T11:29:35.899Z,59
2017-08-10T11:30:38.388Z,58
2017-08-10T11:31:41.201Z,59
2017-08-10T11:32:43.669Z,58
2017-08-10T11:33:46.470Z,57
2017-08-10T11:34:48.993Z,58
2017-08-10T11:35:51.892Z,57
2017-08-10T11:36:54.368Z,57
2017-08-10T11:37:57.540Z,56
2017-08-10T11:39:00.406Z,56
2017-08-10T11:40:02.881Z,57
2017-08-10T11:41:05.713Z,59
2017-08-10T11:42:08.223Z,60
2017-08-10T11:43:11.045Z,57
2017-08-10T11:44:17.058Z,59
2017-08-10T11:45:26.761Z,59
2017-08-10T11:46:35.495Z,58
2017-08-10T11:47:43.528Z,59
2017-08-10T11:48:51.863Z,60
2017-08-10T11:50:00.485Z,57
2017-08-10T11:51:09.876Z,60
2017-08-10T11:52:19.123Z,58
2017-08-10T11:53:28.858Z,58
2017-08-10T11:54:38.171Z,56
2017-08-10T11:55:47.002Z,56
2017-08-10T11:56:55.526Z,60
2017-08-10T11:58:04.996Z,58
2017-08-10T11:59:14.252Z,58
2017-08-10T12:00:24.639Z,58
2017-08-10T12:01:33.070Z,56
2017-08-10T12:02:43.713Z,56
2017-08-10T12:03:53.505Z,57
2017-08-10T12:05:02.592Z,56
2017-08-10T12:06:12.189Z,53
2017-08-10T12:07:22.515Z,53
2017-08-10T12:08:32.255Z,54
2017-08-10T12:09:41.043Z,56
2017-08-10T12:10:49.477Z,55
2017-08-10T12:11:58.498Z,52
2017-08-10T12:13:05.339Z,52
2017-08-10T12:14:13.866Z,52
2017-08-10T12:15:19.805Z,48
2017-08-10T12:16:25.247Z,51
2017-08-10T12:17:34.338Z,50
2017-08-10T12:18:44.370Z,50
2017-08-10T12:19:55.260Z,51
2017-08-10T12:21:06.758Z,50
2017-08-10T12:22:17.201Z,53
2017-08-10T12:23:23.937Z,53
2017-08-10T12:24:27.113Z,54
2017-08-10T12:25:29.581Z,50
2017-08-10T12:26:32.057Z,53
2017-08-10T12:27:34.527Z,51
2017-08-10T12:28:37.006Z,51
2017-08-10T12:29:39.484Z,54
2017-08-10T12:30:41.993Z,51
2017-08-10T12:31:45.148Z,53
2017-08-10T12:32:47.955Z,57
2017-08-10T12:33:50.434Z,57
2017-08-10T12:34:52.900Z,58
2017-08-10T12:35:55.368Z,55
2017-08-10T12:36:57.837Z,55
2017-08-10T12:38:00.312Z,56
2017-08-10T12:39:03.163Z,57
2017-08-10T12:40:05.663Z,58
2017-08-10T12:41:08.504Z,57
2017-08-10T12:42:11.323Z,56
2017-08-10T12:43:14.808Z,56
2017-08-10T12:44:17.609Z,56
2017-08-10T12:45:20.425Z,59
2017-08-10T12:46:22.896Z,60
2017-08-10T12:47:25.706Z,59
2017-08-10T12:48:28.200Z,58
2017-08-10T12:49:31.374Z,57
2017-08-10T12:50:34.201Z,60
2017-08-10T12:51:37.032Z,60
2017-08-10T12:52:39.508Z,61
2017-08-10T12:53:41.982Z,62
2017-08-10T12:54:44.804Z,61
2017-08-10T12:55:47.641Z,61
2017-08-10T12:56:50.129Z,60
2017-08-10T12:57:52.601Z,59
2017-08-10T12:58:58.842Z,60
2017-08-10T13:00:07.210Z,58
2017-08-10T13:01:13.152Z,57
2017-08-10T13:02:16.538Z,58
2017-08-10T13:03:19.037Z,58
2017-08-10T13:04:21.852Z,59
2017-08-10T13:05:24.338Z,58
2017-08-10T13:06:26.820Z,60
2017-08-10T13:07:29.298Z,58
2017-08-10T13:08:31.776Z,58
2017-08-10T13:09:34.605Z,60
2017-08-10T13:10:37.085Z,59
2017-08-10T13:11:39.573Z,60
2017-08-10T13:12:42.393Z,58
2017-08-10T13:13:45.908Z,55
2017-08-10T13:14:48.755Z,55
2017-08-10T13:15:51.268Z,52
2017-08-10T13:16:53.765Z,53
2017-08-10T13:17:56.586Z,53
2017-08-10T13:18:59.389Z,53
2017-08-10T13:20:02.215Z,56
2017-08-10T13:21:05.377Z,54
2017-08-10T13:22:07.874Z,56
2017-08-10T13:23:10.450Z,56
2017-08-10T13:24:16.844Z,55
2017-08-10T13:25:25.818Z,55
2017-08-10T13:26:34.340Z,54
2017-08-10T13:27:42.864Z,54
2017-08-10T13:28:49.926Z,52
2017-08-10T13:29:59.718Z,54
2017-08-10T13:31:05.331Z,54
2017-08-10T13:32:07.810Z,50
2017-08-10T13:33:10.647Z,51
2017-08-10T13:34:13.839Z,52
2017-08-10T13:35:16.398Z,50
2017-08-10T13:36:18.880Z,51
2017-08-10T13:37:21.711Z,51
2017-08-10T13:38:24.274Z,51
2017-08-10T13:39:27.110Z,52
2017-08-10T13:40:29.957Z,52
2017-08-10T13:41:32.770Z,53
2017-08-10T13:42:35.255Z,55
2017-08-10T13:43:38.101Z,55
2017-08-10T13:44:40.642Z,53
2017-08-10T13:45:43.141Z,53
2017-08-10T13:46:46.002Z,52
2017-08-10T13:47:48.524Z,52
2017-08-10T13:48:51.013Z,52
2017-08-10T13:49:53.839Z,52
2017-08-10T13:50:56.362Z,53
2017-08-10T13:51:59.716Z,54
2017-08-10T13:53:02.589Z,57
2017-08-10T13:54:05.486Z,55
2017-08-10T13:55:07.957Z,53
2017-08-10T13:56:10.457Z,54
2017-08-10T13:57:12.951Z,55
2017-08-10T13:58:15.476Z,55
2017-08-10T13:59:17.960Z,55
2017-08-10T14:00:22.216Z,55
2017-08-10T14:01:28.504Z,55
2017-08-10T14:02:35.972Z,53
2017-08-10T14:03:45.299Z,52
2017-08-10T14:04:53.999Z,52
2017-08-10T14:06:01.545Z,52
2017-08-10T14:07:10.570Z,52
2017-08-10T14:08:18.942Z,52
2017-08-10T14:09:24.735Z,51
2017-08-10T14:10:31.551Z,51
2017-08-10T14:11:40.988Z,51
2017-08-10T14:12:49.619Z,52
2017-08-10T14:13:56.400Z,52
2017-08-10T14:14:58.889Z,52
2017-08-10T14:16:01.709Z,50
2017-08-10T14:17:04.539Z,51
2017-08-10T14:18:07.374Z,51
2017-08-10T14:19:09.850Z,49
2017-08-10T14:20:12.326Z,50
2017-08-10T14:21:14.823Z,49
2017-08-10T14:22:17.318Z,48
2017-08-10T14:23:19.807Z,47
2017-08-10T14:24:22.642Z,47
2017-08-10T14:25:25.139Z,51
2017-08-10T14:26:27.614Z,51
2017-08-10T14:27:30.106Z,48
2017-08-10T14:28:32.930Z,50
2017-08-10T14:29:35.782Z,49
2017-08-10T14:30:38.270Z,48
2017-08-10T14:31:40.757Z,49
2017-08-10T14:32:43.239Z,50
2017-08-10T14:33:45.734Z,51
2017-08-10T14:34:48.212Z,53
2017-08-10T14:35:50.714Z,53
2017-08-10T14:36:53.203Z,53
2017-08-10T14:37:56.062Z,52
2017-08-10T14:38:58.528Z,52
2017-08-10T14:40:01.347Z,50
2017-08-10T14:41:04.182Z,49
2017-08-10T14:42:06.993Z,50
2017-08-10T14:43:09.823Z,50
2017-08-10T14:44:12.619Z,51
2017-08-10T14:45:15.083Z,50
2017-08-10T14:46:17.603Z,52
2017-08-10T14:47:20.104Z,53
2017-08-10T14:48:22.575Z,53
2017-08-10T14:49:25.049Z,51
2017-08-10T14:50:27.578Z,51
2017-08-10T14:51:30.731Z,51
2017-08-10T14:52:33.542Z,51
2017-08-10T14:53:36.045Z,52
2017-08-10T14:54:38.863Z,52
2017-08-10T14:55:41.693Z,53
2017-08-10T14:56:44.165Z,54
2017-08-10T14:57:46.984Z,54
2017-08-10T14:58:50.131Z,52
2017-08-10T14:59:52.632Z,54
2017-08-10T15:00:55.109Z,54
2017-08-10T15:01:58.278Z,52